This is the latest recevied weather packets stored in our database for station/object KF0EZB. If no packets are shown the sender has not sent any weather packets the latest 10 day(s).
| Time | Temp. | Humidity | Pressure | Rain* | Wind** | Luminosity | Snow |
|---|---|---|---|---|---|---|---|
| 1777726642 | 7.22° C | 76% | 1021.8 hPa | 0 mm | - | 102 W/m² | - |
| 1777726340 | 6.67° C | 77% | 1021.9 hPa | 0 mm | - | 91 W/m² | - |
| 1777726036 | 6.67° C | 79% | 1021.7 hPa | 0 mm | - | 79 W/m² | - |
| 1777725432 | 5.56° C | 81% | 1021.9 hPa | 0 mm | - | 52 W/m² | - |
| 1777724824 | 5.56° C | 82% | 1021.6 hPa | 0 mm | - | 40 W/m² | - |
| 1777724220 | 5° C | 85% | 1021.2 hPa | 0 mm | - | 30 W/m² | - |
| 1777723917 | 5° C | 86% | 1021.3 hPa | 0 mm | - | 25 W/m² | - |
| 1777722703 | 4.44° C | 88% | 1021 hPa | 0 mm | - | 8 W/m² | - |
| 1777722400 | 4.44° C | 88% | 1021.2 hPa | 0 mm | - | 6 W/m² | - |
| 1777722098 | 4.44° C | 88% | 1021.1 hPa | 0 mm | - | 3 W/m² | - |
| 1777721795 | 4.44° C | 88% | 1021 hPa | 0 mm | - | 1 W/m² | - |
| 1777721493 | 4.44° C | 88% | 1020.9 hPa | 0 mm | - | 0 W/m² | - |
| 1777721191 | 4.44° C | 88% | 1020.8 hPa | 0 mm | - | 0 W/m² | - |
| 1777720888 | 5° C | 88% | 1020.7 hPa | 0 mm | - | 0 W/m² | - |
| 1777720585 | 5° C | 87% | 1020.8 hPa | 0 mm | - | 0 W/m² | - |
| 1777720283 | 5° C | 87% | 1020.8 hPa | 0 mm | - | 0 W/m² | - |
| 1777719980 | 5° C | 87% | 1020.6 hPa | 0 mm | - | 0 W/m² | - |
| 1777719677 | 5.56° C | 87% | 1020.6 hPa | 0 mm | - | 0 W/m² | - |
| 1777719375 | 5.56° C | 87% | 1020.7 hPa | 0 mm | - | 0 W/m² | - |
| 1777719072 | 5.56° C | 86% | 1020.6 hPa | 0 mm | - | 0 W/m² | - |
| 1777718769 | 5.56° C | 86% | 1020.7 hPa | 0 mm | - | 0 W/m² | - |
| 1777718466 | 5.56° C | 86% | 1020.6 hPa | 0 mm | - | 0 W/m² | - |
| 1777718164 | 6.11° C | 86% | 1020.7 hPa | 0 mm | - | 0 W/m² | - |
| 1777717862 | 6.11° C | 86% | 1020.4 hPa | 0 mm | - | 0 W/m² | - |
| 1777717558 | 6.11° C | 85% | 1020.4 hPa | 0 mm | - | 0 W/m² | - |
* Rain latest hour (hover to see other rain measurements)
** Current wind speed in m/s (hover to see current wind gust speed)